Terminal Aerodrome Forecast
Issued by NWS Dodge City, KS

Home | Current Version | Previous Version | Text Only | Print | Product List | Glossary Off
Versions: 1 2 3 4 5 6 7 8 9 10 11 12 13 14 15 16

000
FTUS43 KDDC 260534 CCA
TAFDDC
TAF COR
KDDC 260534Z 2606/2706 01020G30KT P6SM OVC006
      TEMPO 2606/2610 -RA
     FM261200 35015G25KT P6SM OVC035
     FM261500 34015G25KT P6SM SCT080=

USA.gov is the U.S. government's official web portal to all federal, state and local government web resources and services.